<?xml version="1.0" encoding="UTF-8" standalone="no" ?>
<gpx xmlns="http://www.topografix.com/GPX/1/1" xmlns:xsi="http://www.w3.org/2001/XMLSchema-instance" xsi:schemaLocation="http://www.topografix.com/GPX/1/1 http://www.topografix.com/GPX/1/1/gpx.xsd" version="1.1" creator="VisuGPX - https://www.visugpx.com">
  <metadata>
    <name>Fontenay le Comte - Ville et Campagne</name>
  </metadata>
  <wpt lat="46.45248" lon="-0.79537">
    <ele>12.6</ele>
  </wpt>
  <wpt lat="46.45262" lon="-0.79514">
    <ele>13.3</ele>
  </wpt>
  <trk>
    <name><![CDATA[10674408-Fontenay le Comte 01 - Paysages et patrimoine]]></name>
    <trkseg>
      <trkpt lat="46.46371" lon="-0.80169">
        <ele>7</ele>
        <time>2021-01-26T06:40:39Z</time>
      </trkpt>
      <trkpt lat="46.46366" lon="-0.8015">
        <ele>7</ele>
        <time>2021-01-26T06:40:58Z</time>
      </trkpt>
      <trkpt lat="46.46338" lon="-0.80159">
        <ele>5</ele>
        <time>2021-01-26T06:41:36Z</time>
      </trkpt>
      <trkpt lat="46.46327" lon="-0.80116">
        <ele>6</ele>
        <time>2021-01-26T06:42:18Z</time>
      </trkpt>
      <trkpt lat="46.46316" lon="-0.80031">
        <ele>9</ele>
        <time>2021-01-26T06:43:38Z</time>
      </trkpt>
      <trkpt lat="46.46353" lon="-0.80018">
        <ele>10</ele>
        <time>2021-01-26T06:44:28Z</time>
      </trkpt>
      <trkpt lat="46.46364" lon="-0.80019">
        <ele>10</ele>
        <time>2021-01-26T06:44:43Z</time>
      </trkpt>
      <trkpt lat="46.46411" lon="-0.80003">
        <ele>11</ele>
        <time>2021-01-26T06:45:48Z</time>
      </trkpt>
      <trkpt lat="46.46385" lon="-0.79913">
        <ele>12</ele>
        <time>2021-01-26T06:47:17Z</time>
      </trkpt>
      <trkpt lat="46.46411" lon="-0.79861">
        <ele>12</ele>
        <time>2021-01-26T06:48:16Z</time>
      </trkpt>
      <trkpt lat="46.46407" lon="-0.79825">
        <ele>12</ele>
        <time>2021-01-26T06:48:50Z</time>
      </trkpt>
      <trkpt lat="46.46409" lon="-0.79802">
        <ele>12</ele>
        <time>2021-01-26T06:49:11Z</time>
      </trkpt>
      <trkpt lat="46.46415" lon="-0.79788">
        <ele>12</ele>
        <time>2021-01-26T06:49:26Z</time>
      </trkpt>
      <trkpt lat="46.46424" lon="-0.79781">
        <ele>12</ele>
        <time>2021-01-26T06:49:40Z</time>
      </trkpt>
      <trkpt lat="46.46423" lon="-0.79767">
        <ele>12</ele>
        <time>2021-01-26T06:49:53Z</time>
      </trkpt>
      <trkpt lat="46.4647" lon="-0.79771">
        <ele>13</ele>
        <time>2021-01-26T06:50:56Z</time>
      </trkpt>
      <trkpt lat="46.46519" lon="-0.79765">
        <ele>14</ele>
        <time>2021-01-26T06:52:01Z</time>
      </trkpt>
      <trkpt lat="46.4654" lon="-0.79757">
        <ele>14</ele>
        <time>2021-01-26T06:52:30Z</time>
      </trkpt>
      <trkpt lat="46.46559" lon="-0.79796">
        <ele>14</ele>
        <time>2021-01-26T06:53:14Z</time>
      </trkpt>
      <trkpt lat="46.46593" lon="-0.79886">
        <ele>13</ele>
        <time>2021-01-26T06:54:49Z</time>
      </trkpt>
      <trkpt lat="46.46609" lon="-0.79884">
        <ele>12</ele>
        <time>2021-01-26T06:55:10Z</time>
      </trkpt>
      <trkpt lat="46.46595" lon="-0.79916">
        <ele>13</ele>
        <time>2021-01-26T06:55:45Z</time>
      </trkpt>
      <trkpt lat="46.46593" lon="-0.79943">
        <ele>12</ele>
        <time>2021-01-26T06:56:10Z</time>
      </trkpt>
      <trkpt lat="46.46637" lon="-0.80075">
        <ele>11</ele>
        <time>2021-01-26T06:58:25Z</time>
      </trkpt>
      <trkpt lat="46.46698" lon="-0.80278">
        <ele>12</ele>
        <time>2021-01-26T07:01:48Z</time>
      </trkpt>
      <trkpt lat="46.46725" lon="-0.80264">
        <ele>11</ele>
        <time>2021-01-26T07:02:26Z</time>
      </trkpt>
      <trkpt lat="46.46725" lon="-0.80257">
        <ele>11</ele>
        <time>2021-01-26T07:02:33Z</time>
      </trkpt>
      <trkpt lat="46.46746" lon="-0.80235">
        <ele>11</ele>
        <time>2021-01-26T07:03:07Z</time>
      </trkpt>
      <trkpt lat="46.46765" lon="-0.80206">
        <ele>10</ele>
        <time>2021-01-26T07:03:44Z</time>
      </trkpt>
      <trkpt lat="46.46777" lon="-0.80217">
        <ele>10</ele>
        <time>2021-01-26T07:04:03Z</time>
      </trkpt>
      <trkpt lat="46.46794" lon="-0.80239">
        <ele>9</ele>
        <time>2021-01-26T07:04:34Z</time>
      </trkpt>
      <trkpt lat="46.46813" lon="-0.80183">
        <ele>9</ele>
        <time>2021-01-26T07:05:31Z</time>
      </trkpt>
      <trkpt lat="46.46861" lon="-0.80066">
        <ele>9</ele>
        <time>2021-01-26T07:07:36Z</time>
      </trkpt>
      <trkpt lat="46.46879" lon="-0.80011">
        <ele>8</ele>
        <time>2021-01-26T07:08:32Z</time>
      </trkpt>
      <trkpt lat="46.46902" lon="-0.80015">
        <ele>7</ele>
        <time>2021-01-26T07:09:03Z</time>
      </trkpt>
      <trkpt lat="46.4693" lon="-0.79981">
        <ele>7</ele>
        <time>2021-01-26T07:09:52Z</time>
      </trkpt>
      <trkpt lat="46.46951" lon="-0.79991">
        <ele>6</ele>
        <time>2021-01-26T07:10:21Z</time>
      </trkpt>
      <trkpt lat="46.46972" lon="-0.79995">
        <ele>6</ele>
        <time>2021-01-26T07:10:49Z</time>
      </trkpt>
      <trkpt lat="46.46984" lon="-0.79985">
        <ele>5</ele>
        <time>2021-01-26T07:11:08Z</time>
      </trkpt>
      <trkpt lat="46.46992" lon="-0.79968">
        <ele>6</ele>
        <time>2021-01-26T07:11:27Z</time>
      </trkpt>
      <trkpt lat="46.47012" lon="-0.79904">
        <ele>6</ele>
        <time>2021-01-26T07:12:31Z</time>
      </trkpt>
      <trkpt lat="46.47041" lon="-0.7979">
        <ele>7</ele>
        <time>2021-01-26T07:14:23Z</time>
      </trkpt>
      <trkpt lat="46.4706" lon="-0.79731">
        <ele>8</ele>
        <time>2021-01-26T07:15:23Z</time>
      </trkpt>
      <trkpt lat="46.47063" lon="-0.79697">
        <ele>8</ele>
        <time>2021-01-26T07:15:54Z</time>
      </trkpt>
      <trkpt lat="46.47084" lon="-0.79633">
        <ele>9</ele>
        <time>2021-01-26T07:17:00Z</time>
      </trkpt>
      <trkpt lat="46.47097" lon="-0.79616">
        <ele>9</ele>
        <time>2021-01-26T07:17:23Z</time>
      </trkpt>
      <trkpt lat="46.47148" lon="-0.79582">
        <ele>8</ele>
        <time>2021-01-26T07:18:38Z</time>
      </trkpt>
      <trkpt lat="46.4718" lon="-0.79545">
        <ele>8</ele>
        <time>2021-01-26T07:19:32Z</time>
      </trkpt>
      <trkpt lat="46.47227" lon="-0.795">
        <ele>8</ele>
        <time>2021-01-26T07:20:48Z</time>
      </trkpt>
      <trkpt lat="46.47324" lon="-0.79421">
        <ele>8</ele>
        <time>2021-01-26T07:23:16Z</time>
      </trkpt>
      <trkpt lat="46.47339" lon="-0.79398">
        <ele>9</ele>
        <time>2021-01-26T07:23:45Z</time>
      </trkpt>
      <trkpt lat="46.47343" lon="-0.79379">
        <ele>9</ele>
        <time>2021-01-26T07:24:03Z</time>
      </trkpt>
      <trkpt lat="46.47338" lon="-0.79362">
        <ele>10</ele>
        <time>2021-01-26T07:24:20Z</time>
      </trkpt>
      <trkpt lat="46.47302" lon="-0.79295">
        <ele>12</ele>
        <time>2021-01-26T07:25:38Z</time>
      </trkpt>
      <trkpt lat="46.47288" lon="-0.79262">
        <ele>12</ele>
        <time>2021-01-26T07:26:14Z</time>
      </trkpt>
      <trkpt lat="46.47294" lon="-0.79227">
        <ele>12</ele>
        <time>2021-01-26T07:26:47Z</time>
      </trkpt>
      <trkpt lat="46.473" lon="-0.79218">
        <ele>12</ele>
        <time>2021-01-26T07:26:59Z</time>
      </trkpt>
      <trkpt lat="46.47307" lon="-0.7922">
        <ele>12</ele>
        <time>2021-01-26T07:27:08Z</time>
      </trkpt>
      <trkpt lat="46.47312" lon="-0.79229">
        <ele>12</ele>
        <time>2021-01-26T07:27:19Z</time>
      </trkpt>
      <trkpt lat="46.47334" lon="-0.79236">
        <ele>13</ele>
        <time>2021-01-26T07:27:49Z</time>
      </trkpt>
      <trkpt lat="46.47428" lon="-0.7928">
        <ele>10</ele>
        <time>2021-01-26T07:30:01Z</time>
      </trkpt>
      <trkpt lat="46.47514" lon="-0.79311">
        <ele>12</ele>
        <time>2021-01-26T07:31:59Z</time>
      </trkpt>
      <trkpt lat="46.47574" lon="-0.79339">
        <ele>17</ele>
        <time>2021-01-26T07:33:23Z</time>
      </trkpt>
      <trkpt lat="46.47628" lon="-0.79369">
        <ele>18</ele>
        <time>2021-01-26T07:34:40Z</time>
      </trkpt>
      <trkpt lat="46.47639" lon="-0.79369">
        <ele>19</ele>
        <time>2021-01-26T07:34:55Z</time>
      </trkpt>
      <trkpt lat="46.47714" lon="-0.79404">
        <ele>25</ele>
        <time>2021-01-26T07:36:40Z</time>
      </trkpt>
      <trkpt lat="46.47735" lon="-0.79405">
        <ele>27</ele>
        <time>2021-01-26T07:37:08Z</time>
      </trkpt>
      <trkpt lat="46.47993" lon="-0.79527">
        <ele>34</ele>
        <time>2021-01-26T07:43:10Z</time>
      </trkpt>
      <trkpt lat="46.48042" lon="-0.79546">
        <ele>34</ele>
        <time>2021-01-26T07:44:18Z</time>
      </trkpt>
      <trkpt lat="46.48095" lon="-0.79581">
        <ele>34</ele>
        <time>2021-01-26T07:45:36Z</time>
      </trkpt>
      <trkpt lat="46.48155" lon="-0.79628">
        <ele>32</ele>
        <time>2021-01-26T07:47:06Z</time>
      </trkpt>
      <trkpt lat="46.48228" lon="-0.79705">
        <ele>31</ele>
        <time>2021-01-26T07:49:07Z</time>
      </trkpt>
      <trkpt lat="46.48238" lon="-0.7973">
        <ele>31</ele>
        <time>2021-01-26T07:49:33Z</time>
      </trkpt>
      <trkpt lat="46.48264" lon="-0.79761">
        <ele>30</ele>
        <time>2021-01-26T07:50:18Z</time>
      </trkpt>
      <trkpt lat="46.48367" lon="-0.79907">
        <ele>30</ele>
        <time>2021-01-26T07:53:30Z</time>
      </trkpt>
      <trkpt lat="46.48557" lon="-0.80157">
        <ele>32</ele>
        <time>2021-01-26T07:59:13Z</time>
      </trkpt>
      <trkpt lat="46.48627" lon="-0.80231">
        <ele>35</ele>
        <time>2021-01-26T08:01:08Z</time>
      </trkpt>
      <trkpt lat="46.48677" lon="-0.80276">
        <ele>36</ele>
        <time>2021-01-26T08:02:27Z</time>
      </trkpt>
      <trkpt lat="46.48711" lon="-0.80239">
        <ele>35</ele>
        <time>2021-01-26T08:03:23Z</time>
      </trkpt>
      <trkpt lat="46.48729" lon="-0.8023">
        <ele>33</ele>
        <time>2021-01-26T08:03:49Z</time>
      </trkpt>
      <trkpt lat="46.48794" lon="-0.80225">
        <ele>30</ele>
        <time>2021-01-26T08:05:16Z</time>
      </trkpt>
      <trkpt lat="46.48861" lon="-0.8021">
        <ele>25</ele>
        <time>2021-01-26T08:06:46Z</time>
      </trkpt>
      <trkpt lat="46.48917" lon="-0.80168">
        <ele>17</ele>
        <time>2021-01-26T08:08:10Z</time>
      </trkpt>
      <trkpt lat="46.48965" lon="-0.80181">
        <ele>18</ele>
        <time>2021-01-26T08:09:15Z</time>
      </trkpt>
      <trkpt lat="46.49028" lon="-0.8022">
        <ele>19</ele>
        <time>2021-01-26T08:10:47Z</time>
      </trkpt>
      <trkpt lat="46.49055" lon="-0.80242">
        <ele>19</ele>
        <time>2021-01-26T08:11:28Z</time>
      </trkpt>
      <trkpt lat="46.49115" lon="-0.8026">
        <ele>20</ele>
        <time>2021-01-26T08:12:50Z</time>
      </trkpt>
      <trkpt lat="46.49129" lon="-0.80257">
        <ele>20</ele>
        <time>2021-01-26T08:13:09Z</time>
      </trkpt>
      <trkpt lat="46.49197" lon="-0.80183">
        <ele>15</ele>
        <time>2021-01-26T08:15:02Z</time>
      </trkpt>
      <trkpt lat="46.49215" lon="-0.80176">
        <ele>15</ele>
        <time>2021-01-26T08:15:27Z</time>
      </trkpt>
      <trkpt lat="46.49233" lon="-0.80187">
        <ele>16</ele>
        <time>2021-01-26T08:15:53Z</time>
      </trkpt>
      <trkpt lat="46.49248" lon="-0.80228">
        <ele>22</ele>
        <time>2021-01-26T08:16:36Z</time>
      </trkpt>
      <trkpt lat="46.49274" lon="-0.80264">
        <ele>31</ele>
        <time>2021-01-26T08:17:24Z</time>
      </trkpt>
      <trkpt lat="46.49289" lon="-0.80279">
        <ele>36</ele>
        <time>2021-01-26T08:17:48Z</time>
      </trkpt>
      <trkpt lat="46.49339" lon="-0.8029">
        <ele>42</ele>
        <time>2021-01-26T08:18:55Z</time>
      </trkpt>
      <trkpt lat="46.49342" lon="-0.80309">
        <ele>45</ele>
        <time>2021-01-26T08:19:13Z</time>
      </trkpt>
      <trkpt lat="46.49363" lon="-0.80372">
        <ele>51</ele>
        <time>2021-01-26T08:20:18Z</time>
      </trkpt>
      <trkpt lat="46.49388" lon="-0.80428">
        <ele>53</ele>
        <time>2021-01-26T08:21:19Z</time>
      </trkpt>
      <trkpt lat="46.49391" lon="-0.80453">
        <ele>54</ele>
        <time>2021-01-26T08:21:42Z</time>
      </trkpt>
      <trkpt lat="46.49391" lon="-0.80482">
        <ele>55</ele>
        <time>2021-01-26T08:22:09Z</time>
      </trkpt>
      <trkpt lat="46.49453" lon="-0.80581">
        <ele>57</ele>
        <time>2021-01-26T08:24:12Z</time>
      </trkpt>
      <trkpt lat="46.49495" lon="-0.8062">
        <ele>59</ele>
        <time>2021-01-26T08:25:18Z</time>
      </trkpt>
      <trkpt lat="46.49534" lon="-0.80672">
        <ele>61</ele>
        <time>2021-01-26T08:26:29Z</time>
      </trkpt>
      <trkpt lat="46.49568" lon="-0.80706">
        <ele>62</ele>
        <time>2021-01-26T08:27:24Z</time>
      </trkpt>
      <trkpt lat="46.4961" lon="-0.8074">
        <ele>65</ele>
        <time>2021-01-26T08:28:28Z</time>
      </trkpt>
      <trkpt lat="46.49629" lon="-0.80762">
        <ele>66</ele>
        <time>2021-01-26T08:29:01Z</time>
      </trkpt>
      <trkpt lat="46.49661" lon="-0.80758">
        <ele>69</ele>
        <time>2021-01-26T08:29:43Z</time>
      </trkpt>
      <trkpt lat="46.4966" lon="-0.80734">
        <ele>68</ele>
        <time>2021-01-26T08:30:06Z</time>
      </trkpt>
      <trkpt lat="46.4967" lon="-0.8078">
        <ele>69</ele>
        <time>2021-01-26T08:30:50Z</time>
      </trkpt>
      <trkpt lat="46.49685" lon="-0.80782">
        <ele>70</ele>
        <time>2021-01-26T08:31:10Z</time>
      </trkpt>
      <trkpt lat="46.49701" lon="-0.80756">
        <ele>70</ele>
        <time>2021-01-26T08:31:42Z</time>
      </trkpt>
      <trkpt lat="46.49722" lon="-0.8073">
        <ele>71</ele>
        <time>2021-01-26T08:32:19Z</time>
      </trkpt>
      <trkpt lat="46.49698" lon="-0.80683">
        <ele>70</ele>
        <time>2021-01-26T08:33:13Z</time>
      </trkpt>
      <trkpt lat="46.49736" lon="-0.80648">
        <ele>71</ele>
        <time>2021-01-26T08:34:13Z</time>
      </trkpt>
      <trkpt lat="46.49762" lon="-0.80613">
        <ele>72</ele>
        <time>2021-01-26T08:35:00Z</time>
      </trkpt>
      <trkpt lat="46.49805" lon="-0.80563">
        <ele>74</ele>
        <time>2021-01-26T08:36:13Z</time>
      </trkpt>
      <trkpt lat="46.49853" lon="-0.80532">
        <ele>77</ele>
        <time>2021-01-26T08:37:24Z</time>
      </trkpt>
      <trkpt lat="46.49912" lon="-0.80531">
        <ele>79</ele>
        <time>2021-01-26T08:38:42Z</time>
      </trkpt>
      <trkpt lat="46.49963" lon="-0.80515">
        <ele>76</ele>
        <time>2021-01-26T08:39:52Z</time>
      </trkpt>
      <trkpt lat="46.49995" lon="-0.80525">
        <ele>76</ele>
        <time>2021-01-26T08:40:36Z</time>
      </trkpt>
      <trkpt lat="46.50019" lon="-0.8054">
        <ele>76</ele>
        <time>2021-01-26T08:41:10Z</time>
      </trkpt>
      <trkpt lat="46.50077" lon="-0.80595">
        <ele>75</ele>
        <time>2021-01-26T08:42:43Z</time>
      </trkpt>
      <trkpt lat="46.50099" lon="-0.806">
        <ele>74</ele>
        <time>2021-01-26T08:43:13Z</time>
      </trkpt>
      <trkpt lat="46.50138" lon="-0.80599">
        <ele>74</ele>
        <time>2021-01-26T08:44:05Z</time>
      </trkpt>
      <trkpt lat="46.50179" lon="-0.80617">
        <ele>75</ele>
        <time>2021-01-26T08:45:02Z</time>
      </trkpt>
      <trkpt lat="46.50185" lon="-0.80581">
        <ele>74</ele>
        <time>2021-01-26T08:45:36Z</time>
      </trkpt>
      <trkpt lat="46.50084" lon="-0.80509">
        <ele>72</ele>
        <time>2021-01-26T08:48:06Z</time>
      </trkpt>
      <trkpt lat="46.50062" lon="-0.80502">
        <ele>73</ele>
        <time>2021-01-26T08:48:36Z</time>
      </trkpt>
      <trkpt lat="46.4999" lon="-0.80424">
        <ele>71</ele>
        <time>2021-01-26T08:50:36Z</time>
      </trkpt>
      <trkpt lat="46.49915" lon="-0.80354">
        <ele>67</ele>
        <time>2021-01-26T08:52:35Z</time>
      </trkpt>
      <trkpt lat="46.49883" lon="-0.80328">
        <ele>66</ele>
        <time>2021-01-26T08:53:24Z</time>
      </trkpt>
      <trkpt lat="46.49782" lon="-0.80268">
        <ele>61</ele>
        <time>2021-01-26T08:55:49Z</time>
      </trkpt>
      <trkpt lat="46.49741" lon="-0.80259">
        <ele>60</ele>
        <time>2021-01-26T08:56:45Z</time>
      </trkpt>
      <trkpt lat="46.49689" lon="-0.80244">
        <ele>55</ele>
        <time>2021-01-26T08:57:55Z</time>
      </trkpt>
      <trkpt lat="46.49639" lon="-0.80254">
        <ele>54</ele>
        <time>2021-01-26T08:59:03Z</time>
      </trkpt>
      <trkpt lat="46.49642" lon="-0.8022">
        <ele>52</ele>
        <time>2021-01-26T08:59:34Z</time>
      </trkpt>
      <trkpt lat="46.49663" lon="-0.80196">
        <ele>51</ele>
        <time>2021-01-26T09:00:10Z</time>
      </trkpt>
      <trkpt lat="46.49672" lon="-0.80134">
        <ele>46</ele>
        <time>2021-01-26T09:01:08Z</time>
      </trkpt>
      <trkpt lat="46.49675" lon="-0.80096">
        <ele>43</ele>
        <time>2021-01-26T09:01:43Z</time>
      </trkpt>
      <trkpt lat="46.49696" lon="-0.80011">
        <ele>37</ele>
        <time>2021-01-26T09:03:06Z</time>
      </trkpt>
      <trkpt lat="46.49688" lon="-0.79986">
        <ele>35</ele>
        <time>2021-01-26T09:03:32Z</time>
      </trkpt>
      <trkpt lat="46.49639" lon="-0.79865">
        <ele>21</ele>
        <time>2021-01-26T09:05:41Z</time>
      </trkpt>
      <trkpt lat="46.49761" lon="-0.79712">
        <ele>23</ele>
        <time>2021-01-26T09:09:16Z</time>
      </trkpt>
      <trkpt lat="46.49856" lon="-0.79608">
        <ele>20</ele>
        <time>2021-01-26T09:11:54Z</time>
      </trkpt>
      <trkpt lat="46.49922" lon="-0.79549">
        <ele>20</ele>
        <time>2021-01-26T09:13:38Z</time>
      </trkpt>
      <trkpt lat="46.49984" lon="-0.79521">
        <ele>19</ele>
        <time>2021-01-26T09:15:04Z</time>
      </trkpt>
      <trkpt lat="46.50003" lon="-0.79533">
        <ele>21</ele>
        <time>2021-01-26T09:15:32Z</time>
      </trkpt>
      <trkpt lat="46.50009" lon="-0.79523">
        <ele>21</ele>
        <time>2021-01-26T09:15:44Z</time>
      </trkpt>
      <trkpt lat="46.50027" lon="-0.79571">
        <ele>28</ele>
        <time>2021-01-26T09:16:34Z</time>
      </trkpt>
      <trkpt lat="46.5004" lon="-0.79624">
        <ele>33</ele>
        <time>2021-01-26T09:17:26Z</time>
      </trkpt>
      <trkpt lat="46.5014" lon="-0.79639">
        <ele>46</ele>
        <time>2021-01-26T09:19:40Z</time>
      </trkpt>
      <trkpt lat="46.50203" lon="-0.79608">
        <ele>55</ele>
        <time>2021-01-26T09:21:09Z</time>
      </trkpt>
      <trkpt lat="46.5021" lon="-0.79602">
        <ele>56</ele>
        <time>2021-01-26T09:21:20Z</time>
      </trkpt>
      <trkpt lat="46.5024" lon="-0.79602">
        <ele>59</ele>
        <time>2021-01-26T09:22:00Z</time>
      </trkpt>
      <trkpt lat="46.50328" lon="-0.79561">
        <ele>69</ele>
        <time>2021-01-26T09:24:03Z</time>
      </trkpt>
      <trkpt lat="46.50424" lon="-0.79536">
        <ele>76</ele>
        <time>2021-01-26T09:26:13Z</time>
      </trkpt>
      <trkpt lat="46.50598" lon="-0.79507">
        <ele>89</ele>
        <time>2021-01-26T09:30:07Z</time>
      </trkpt>
      <trkpt lat="46.50641" lon="-0.79489">
        <ele>89</ele>
        <time>2021-01-26T09:31:07Z</time>
      </trkpt>
      <trkpt lat="46.5065" lon="-0.79481">
        <ele>89</ele>
        <time>2021-01-26T09:31:21Z</time>
      </trkpt>
      <trkpt lat="46.50648" lon="-0.79471">
        <ele>90</ele>
        <time>2021-01-26T09:31:30Z</time>
      </trkpt>
      <trkpt lat="46.50635" lon="-0.79454">
        <ele>92</ele>
        <time>2021-01-26T09:31:54Z</time>
      </trkpt>
      <trkpt lat="46.50612" lon="-0.7944">
        <ele>94</ele>
        <time>2021-01-26T09:32:27Z</time>
      </trkpt>
      <trkpt lat="46.5057" lon="-0.79328">
        <ele>94</ele>
        <time>2021-01-26T09:34:24Z</time>
      </trkpt>
      <trkpt lat="46.50568" lon="-0.79298">
        <ele>91</ele>
        <time>2021-01-26T09:34:52Z</time>
      </trkpt>
      <trkpt lat="46.50571" lon="-0.7925">
        <ele>89</ele>
        <time>2021-01-26T09:35:36Z</time>
      </trkpt>
      <trkpt lat="46.50559" lon="-0.79164">
        <ele>86</ele>
        <time>2021-01-26T09:36:57Z</time>
      </trkpt>
      <trkpt lat="46.50554" lon="-0.79079">
        <ele>85</ele>
        <time>2021-01-26T09:38:15Z</time>
      </trkpt>
      <trkpt lat="46.50529" lon="-0.79087">
        <ele>85</ele>
        <time>2021-01-26T09:38:49Z</time>
      </trkpt>
      <trkpt lat="46.50519" lon="-0.79069">
        <ele>85</ele>
        <time>2021-01-26T09:39:11Z</time>
      </trkpt>
      <trkpt lat="46.50491" lon="-0.78966">
        <ele>84</ele>
        <time>2021-01-26T09:40:52Z</time>
      </trkpt>
      <trkpt lat="46.50461" lon="-0.78881">
        <ele>79</ele>
        <time>2021-01-26T09:42:20Z</time>
      </trkpt>
      <trkpt lat="46.50454" lon="-0.78815">
        <ele>79</ele>
        <time>2021-01-26T09:43:21Z</time>
      </trkpt>
      <trkpt lat="46.50447" lon="-0.78787">
        <ele>78</ele>
        <time>2021-01-26T09:43:49Z</time>
      </trkpt>
      <trkpt lat="46.50421" lon="-0.78727">
        <ele>77</ele>
        <time>2021-01-26T09:44:54Z</time>
      </trkpt>
      <trkpt lat="46.50391" lon="-0.78639">
        <ele>70</ele>
        <time>2021-01-26T09:46:24Z</time>
      </trkpt>
      <trkpt lat="46.50385" lon="-0.78565">
        <ele>63</ele>
        <time>2021-01-26T09:47:32Z</time>
      </trkpt>
      <trkpt lat="46.50366" lon="-0.7852">
        <ele>57</ele>
        <time>2021-01-26T09:48:21Z</time>
      </trkpt>
      <trkpt lat="46.50334" lon="-0.78485">
        <ele>50</ele>
        <time>2021-01-26T09:49:14Z</time>
      </trkpt>
      <trkpt lat="46.50317" lon="-0.78459">
        <ele>45</ele>
        <time>2021-01-26T09:49:47Z</time>
      </trkpt>
      <trkpt lat="46.50296" lon="-0.7844">
        <ele>44</ele>
        <time>2021-01-26T09:50:20Z</time>
      </trkpt>
      <trkpt lat="46.50275" lon="-0.78413">
        <ele>45</ele>
        <time>2021-01-26T09:50:58Z</time>
      </trkpt>
      <trkpt lat="46.5027" lon="-0.78387">
        <ele>44</ele>
        <time>2021-01-26T09:51:23Z</time>
      </trkpt>
      <trkpt lat="46.50217" lon="-0.7833">
        <ele>44</ele>
        <time>2021-01-26T09:52:51Z</time>
      </trkpt>
      <trkpt lat="46.5019" lon="-0.78326">
        <ele>43</ele>
        <time>2021-01-26T09:53:27Z</time>
      </trkpt>
      <trkpt lat="46.50172" lon="-0.78307">
        <ele>42</ele>
        <time>2021-01-26T09:53:56Z</time>
      </trkpt>
      <trkpt lat="46.5018" lon="-0.78272">
        <ele>39</ele>
        <time>2021-01-26T09:54:30Z</time>
      </trkpt>
      <trkpt lat="46.50141" lon="-0.78216">
        <ele>31</ele>
        <time>2021-01-26T09:55:44Z</time>
      </trkpt>
      <trkpt lat="46.50115" lon="-0.78228">
        <ele>30</ele>
        <time>2021-01-26T09:56:20Z</time>
      </trkpt>
      <trkpt lat="46.50095" lon="-0.78244">
        <ele>28</ele>
        <time>2021-01-26T09:56:50Z</time>
      </trkpt>
      <trkpt lat="46.50073" lon="-0.78223">
        <ele>25</ele>
        <time>2021-01-26T09:57:26Z</time>
      </trkpt>
      <trkpt lat="46.5005" lon="-0.78265">
        <ele>24</ele>
        <time>2021-01-26T09:58:15Z</time>
      </trkpt>
      <trkpt lat="46.50045" lon="-0.78339">
        <ele>22</ele>
        <time>2021-01-26T09:59:23Z</time>
      </trkpt>
      <trkpt lat="46.50024" lon="-0.78337">
        <ele>21</ele>
        <time>2021-01-26T09:59:51Z</time>
      </trkpt>
      <trkpt lat="46.50006" lon="-0.78322">
        <ele>20</ele>
        <time>2021-01-26T10:00:19Z</time>
      </trkpt>
      <trkpt lat="46.4997" lon="-0.7835">
        <ele>36</ele>
        <time>2021-01-26T10:01:13Z</time>
      </trkpt>
      <trkpt lat="46.49996" lon="-0.78413">
        <ele>31</ele>
        <time>2021-01-26T10:02:21Z</time>
      </trkpt>
      <trkpt lat="46.50049" lon="-0.7848">
        <ele>29</ele>
        <time>2021-01-26T10:03:55Z</time>
      </trkpt>
      <trkpt lat="46.50071" lon="-0.78528">
        <ele>28</ele>
        <time>2021-01-26T10:04:48Z</time>
      </trkpt>
      <trkpt lat="46.50085" lon="-0.78593">
        <ele>30</ele>
        <time>2021-01-26T10:05:50Z</time>
      </trkpt>
      <trkpt lat="46.50025" lon="-0.78567">
        <ele>44</ele>
        <time>2021-01-26T10:07:14Z</time>
      </trkpt>
      <trkpt lat="46.49937" lon="-0.78521">
        <ele>56</ele>
        <time>2021-01-26T10:09:19Z</time>
      </trkpt>
      <trkpt lat="46.4984" lon="-0.78419">
        <ele>65</ele>
        <time>2021-01-26T10:11:58Z</time>
      </trkpt>
      <trkpt lat="46.49807" lon="-0.7839">
        <ele>68</ele>
        <time>2021-01-26T10:12:50Z</time>
      </trkpt>
      <trkpt lat="46.49739" lon="-0.78343">
        <ele>70</ele>
        <time>2021-01-26T10:14:30Z</time>
      </trkpt>
      <trkpt lat="46.49735" lon="-0.78333">
        <ele>70</ele>
        <time>2021-01-26T10:14:41Z</time>
      </trkpt>
      <trkpt lat="46.49665" lon="-0.78271">
        <ele>73</ele>
        <time>2021-01-26T10:16:30Z</time>
      </trkpt>
      <trkpt lat="46.4964" lon="-0.78262">
        <ele>74</ele>
        <time>2021-01-26T10:17:05Z</time>
      </trkpt>
      <trkpt lat="46.49595" lon="-0.78292">
        <ele>75</ele>
        <time>2021-01-26T10:18:11Z</time>
      </trkpt>
      <trkpt lat="46.49522" lon="-0.78355">
        <ele>75</ele>
        <time>2021-01-26T10:20:04Z</time>
      </trkpt>
      <trkpt lat="46.49494" lon="-0.78313">
        <ele>76</ele>
        <time>2021-01-26T10:20:58Z</time>
      </trkpt>
      <trkpt lat="46.49481" lon="-0.78267">
        <ele>76</ele>
        <time>2021-01-26T10:21:43Z</time>
      </trkpt>
      <trkpt lat="46.49464" lon="-0.78234">
        <ele>75</ele>
        <time>2021-01-26T10:22:21Z</time>
      </trkpt>
      <trkpt lat="46.49449" lon="-0.78213">
        <ele>74</ele>
        <time>2021-01-26T10:22:49Z</time>
      </trkpt>
      <trkpt lat="46.49435" lon="-0.782">
        <ele>74</ele>
        <time>2021-01-26T10:23:11Z</time>
      </trkpt>
      <trkpt lat="46.49342" lon="-0.78259">
        <ele>66</ele>
        <time>2021-01-26T10:25:27Z</time>
      </trkpt>
      <trkpt lat="46.49106" lon="-0.78441">
        <ele>47</ele>
        <time>2021-01-26T10:31:23Z</time>
      </trkpt>
      <trkpt lat="46.49018" lon="-0.78527">
        <ele>41</ele>
        <time>2021-01-26T10:33:45Z</time>
      </trkpt>
      <trkpt lat="46.48956" lon="-0.78545">
        <ele>38</ele>
        <time>2021-01-26T10:35:09Z</time>
      </trkpt>
      <trkpt lat="46.48928" lon="-0.78562">
        <ele>36</ele>
        <time>2021-01-26T10:35:50Z</time>
      </trkpt>
      <trkpt lat="46.48914" lon="-0.78535">
        <ele>37</ele>
        <time>2021-01-26T10:36:21Z</time>
      </trkpt>
      <trkpt lat="46.48892" lon="-0.78552">
        <ele>35</ele>
        <time>2021-01-26T10:36:54Z</time>
      </trkpt>
      <trkpt lat="46.48881" lon="-0.78532">
        <ele>36</ele>
        <time>2021-01-26T10:37:18Z</time>
      </trkpt>
      <trkpt lat="46.48864" lon="-0.78537">
        <ele>35</ele>
        <time>2021-01-26T10:37:41Z</time>
      </trkpt>
      <trkpt lat="46.48847" lon="-0.78533">
        <ele>35</ele>
        <time>2021-01-26T10:38:04Z</time>
      </trkpt>
      <trkpt lat="46.48842" lon="-0.78521">
        <ele>36</ele>
        <time>2021-01-26T10:38:17Z</time>
      </trkpt>
      <trkpt lat="46.4882" lon="-0.78497">
        <ele>36</ele>
        <time>2021-01-26T10:38:53Z</time>
      </trkpt>
      <trkpt lat="46.48817" lon="-0.7844">
        <ele>37</ele>
        <time>2021-01-26T10:39:46Z</time>
      </trkpt>
      <trkpt lat="46.48825" lon="-0.78432">
        <ele>38</ele>
        <time>2021-01-26T10:39:59Z</time>
      </trkpt>
      <trkpt lat="46.4883" lon="-0.78414">
        <ele>39</ele>
        <time>2021-01-26T10:40:17Z</time>
      </trkpt>
      <trkpt lat="46.48825" lon="-0.78402">
        <ele>38</ele>
        <time>2021-01-26T10:40:29Z</time>
      </trkpt>
      <trkpt lat="46.48826" lon="-0.78395">
        <ele>38</ele>
        <time>2021-01-26T10:40:36Z</time>
      </trkpt>
      <trkpt lat="46.4882" lon="-0.78371">
        <ele>38</ele>
        <time>2021-01-26T10:41:00Z</time>
      </trkpt>
      <trkpt lat="46.48811" lon="-0.78352">
        <ele>37</ele>
        <time>2021-01-26T10:41:21Z</time>
      </trkpt>
      <trkpt lat="46.48806" lon="-0.78333">
        <ele>37</ele>
        <time>2021-01-26T10:41:39Z</time>
      </trkpt>
      <trkpt lat="46.48813" lon="-0.78309">
        <ele>37</ele>
        <time>2021-01-26T10:42:03Z</time>
      </trkpt>
      <trkpt lat="46.48805" lon="-0.78304">
        <ele>36</ele>
        <time>2021-01-26T10:42:15Z</time>
      </trkpt>
      <trkpt lat="46.48803" lon="-0.78344">
        <ele>37</ele>
        <time>2021-01-26T10:42:52Z</time>
      </trkpt>
      <trkpt lat="46.4882" lon="-0.78399">
        <ele>38</ele>
        <time>2021-01-26T10:43:47Z</time>
      </trkpt>
      <trkpt lat="46.48809" lon="-0.78424">
        <ele>36</ele>
        <time>2021-01-26T10:44:14Z</time>
      </trkpt>
      <trkpt lat="46.48806" lon="-0.78442">
        <ele>36</ele>
        <time>2021-01-26T10:44:31Z</time>
      </trkpt>
      <trkpt lat="46.48791" lon="-0.78451">
        <ele>34</ele>
        <time>2021-01-26T10:44:53Z</time>
      </trkpt>
      <trkpt lat="46.48764" lon="-0.78459">
        <ele>31</ele>
        <time>2021-01-26T10:45:30Z</time>
      </trkpt>
      <trkpt lat="46.48742" lon="-0.78461">
        <ele>29</ele>
        <time>2021-01-26T10:45:59Z</time>
      </trkpt>
      <trkpt lat="46.48718" lon="-0.78514">
        <ele>26</ele>
        <time>2021-01-26T10:46:58Z</time>
      </trkpt>
      <trkpt lat="46.4874" lon="-0.78529">
        <ele>27</ele>
        <time>2021-01-26T10:47:30Z</time>
      </trkpt>
      <trkpt lat="46.48719" lon="-0.78551">
        <ele>25</ele>
        <time>2021-01-26T10:48:05Z</time>
      </trkpt>
      <trkpt lat="46.48751" lon="-0.78615">
        <ele>25</ele>
        <time>2021-01-26T10:49:17Z</time>
      </trkpt>
      <trkpt lat="46.48773" lon="-0.7865">
        <ele>25</ele>
        <time>2021-01-26T10:50:01Z</time>
      </trkpt>
      <trkpt lat="46.48807" lon="-0.78647">
        <ele>27</ele>
        <time>2021-01-26T10:50:46Z</time>
      </trkpt>
      <trkpt lat="46.48836" lon="-0.78663">
        <ele>27</ele>
        <time>2021-01-26T10:51:28Z</time>
      </trkpt>
      <trkpt lat="46.4885" lon="-0.78653">
        <ele>29</ele>
        <time>2021-01-26T10:51:48Z</time>
      </trkpt>
      <trkpt lat="46.48859" lon="-0.7864">
        <ele>31</ele>
        <time>2021-01-26T10:52:05Z</time>
      </trkpt>
      <trkpt lat="46.48889" lon="-0.78613">
        <ele>34</ele>
        <time>2021-01-26T10:52:53Z</time>
      </trkpt>
      <trkpt lat="46.48905" lon="-0.78616">
        <ele>35</ele>
        <time>2021-01-26T10:53:14Z</time>
      </trkpt>
      <trkpt lat="46.48917" lon="-0.78631">
        <ele>36</ele>
        <time>2021-01-26T10:53:35Z</time>
      </trkpt>
      <trkpt lat="46.48937" lon="-0.78667">
        <ele>37</ele>
        <time>2021-01-26T10:54:18Z</time>
      </trkpt>
      <trkpt lat="46.4897" lon="-0.78714">
        <ele>37</ele>
        <time>2021-01-26T10:55:19Z</time>
      </trkpt>
      <trkpt lat="46.48985" lon="-0.78877">
        <ele>36</ele>
        <time>2021-01-26T10:57:50Z</time>
      </trkpt>
      <trkpt lat="46.48982" lon="-0.78903">
        <ele>35</ele>
        <time>2021-01-26T10:58:15Z</time>
      </trkpt>
      <trkpt lat="46.48965" lon="-0.78935">
        <ele>32</ele>
        <time>2021-01-26T10:58:52Z</time>
      </trkpt>
      <trkpt lat="46.48955" lon="-0.78945">
        <ele>31</ele>
        <time>2021-01-26T10:59:08Z</time>
      </trkpt>
      <trkpt lat="46.4893" lon="-0.78956">
        <ele>29</ele>
        <time>2021-01-26T10:59:43Z</time>
      </trkpt>
      <trkpt lat="46.48905" lon="-0.78958">
        <ele>27</ele>
        <time>2021-01-26T11:00:16Z</time>
      </trkpt>
      <trkpt lat="46.48867" lon="-0.78983">
        <ele>25</ele>
        <time>2021-01-26T11:01:12Z</time>
      </trkpt>
      <trkpt lat="46.48792" lon="-0.79015">
        <ele>22</ele>
        <time>2021-01-26T11:02:56Z</time>
      </trkpt>
      <trkpt lat="46.4878" lon="-0.78977">
        <ele>21</ele>
        <time>2021-01-26T11:03:35Z</time>
      </trkpt>
      <trkpt lat="46.48758" lon="-0.78944">
        <ele>19</ele>
        <time>2021-01-26T11:04:17Z</time>
      </trkpt>
      <trkpt lat="46.48718" lon="-0.78856">
        <ele>19</ele>
        <time>2021-01-26T11:05:54Z</time>
      </trkpt>
      <trkpt lat="46.48697" lon="-0.78802">
        <ele>19</ele>
        <time>2021-01-26T11:06:51Z</time>
      </trkpt>
      <trkpt lat="46.48694" lon="-0.78776">
        <ele>19</ele>
        <time>2021-01-26T11:07:15Z</time>
      </trkpt>
      <trkpt lat="46.48607" lon="-0.78741">
        <ele>16</ele>
        <time>2021-01-26T11:09:15Z</time>
      </trkpt>
      <trkpt lat="46.48547" lon="-0.78723">
        <ele>14</ele>
        <time>2021-01-26T11:10:37Z</time>
      </trkpt>
      <trkpt lat="46.48515" lon="-0.78741">
        <ele>13</ele>
        <time>2021-01-26T11:11:23Z</time>
      </trkpt>
      <trkpt lat="46.4842" lon="-0.78617">
        <ele>10</ele>
        <time>2021-01-26T11:14:13Z</time>
      </trkpt>
      <trkpt lat="46.48346" lon="-0.78658">
        <ele>9</ele>
        <time>2021-01-26T11:15:59Z</time>
      </trkpt>
      <trkpt lat="46.48233" lon="-0.78633">
        <ele>11</ele>
        <time>2021-01-26T11:18:32Z</time>
      </trkpt>
      <trkpt lat="46.48211" lon="-0.7864">
        <ele>11</ele>
        <time>2021-01-26T11:19:02Z</time>
      </trkpt>
      <trkpt lat="46.48068" lon="-0.78758">
        <ele>20</ele>
        <time>2021-01-26T11:22:41Z</time>
      </trkpt>
      <trkpt lat="46.48057" lon="-0.78773">
        <ele>20</ele>
        <time>2021-01-26T11:23:01Z</time>
      </trkpt>
      <trkpt lat="46.48044" lon="-0.78821">
        <ele>22</ele>
        <time>2021-01-26T11:23:49Z</time>
      </trkpt>
      <trkpt lat="46.48017" lon="-0.78875">
        <ele>23</ele>
        <time>2021-01-26T11:24:50Z</time>
      </trkpt>
      <trkpt lat="46.47975" lon="-0.78932">
        <ele>24</ele>
        <time>2021-01-26T11:26:07Z</time>
      </trkpt>
      <trkpt lat="46.4792" lon="-0.78971">
        <ele>24</ele>
        <time>2021-01-26T11:27:28Z</time>
      </trkpt>
      <trkpt lat="46.4789" lon="-0.78988">
        <ele>23</ele>
        <time>2021-01-26T11:28:11Z</time>
      </trkpt>
      <trkpt lat="46.47834" lon="-0.79048">
        <ele>22</ele>
        <time>2021-01-26T11:29:44Z</time>
      </trkpt>
      <trkpt lat="46.47811" lon="-0.79059">
        <ele>21</ele>
        <time>2021-01-26T11:30:17Z</time>
      </trkpt>
      <trkpt lat="46.4779" lon="-0.79079">
        <ele>20</ele>
        <time>2021-01-26T11:30:50Z</time>
      </trkpt>
      <trkpt lat="46.47703" lon="-0.79219">
        <ele>16</ele>
        <time>2021-01-26T11:33:43Z</time>
      </trkpt>
      <trkpt lat="46.47636" lon="-0.79337">
        <ele>19</ele>
        <time>2021-01-26T11:36:04Z</time>
      </trkpt>
      <trkpt lat="46.47626" lon="-0.79391">
        <ele>18</ele>
        <time>2021-01-26T11:36:55Z</time>
      </trkpt>
      <trkpt lat="46.4767" lon="-0.794">
        <ele>21</ele>
        <time>2021-01-26T11:37:55Z</time>
      </trkpt>
      <trkpt lat="46.47707" lon="-0.79412">
        <ele>25</ele>
        <time>2021-01-26T11:38:45Z</time>
      </trkpt>
      <trkpt lat="46.47714" lon="-0.79391">
        <ele>25</ele>
        <time>2021-01-26T11:39:07Z</time>
      </trkpt>
      <trkpt lat="46.47582" lon="-0.79335">
        <ele>18</ele>
        <time>2021-01-26T11:42:10Z</time>
      </trkpt>
      <trkpt lat="46.47476" lon="-0.79287">
        <ele>10</ele>
        <time>2021-01-26T11:44:38Z</time>
      </trkpt>
      <trkpt lat="46.47368" lon="-0.79244">
        <ele>12</ele>
        <time>2021-01-26T11:47:08Z</time>
      </trkpt>
      <trkpt lat="46.47312" lon="-0.79214">
        <ele>12</ele>
        <time>2021-01-26T11:48:27Z</time>
      </trkpt>
      <trkpt lat="46.47292" lon="-0.79197">
        <ele>12</ele>
        <time>2021-01-26T11:48:58Z</time>
      </trkpt>
      <trkpt lat="46.47282" lon="-0.79183">
        <ele>13</ele>
        <time>2021-01-26T11:49:17Z</time>
      </trkpt>
      <trkpt lat="46.47212" lon="-0.79175">
        <ele>15</ele>
        <time>2021-01-26T11:50:51Z</time>
      </trkpt>
      <trkpt lat="46.47191" lon="-0.79168">
        <ele>15</ele>
        <time>2021-01-26T11:51:19Z</time>
      </trkpt>
      <trkpt lat="46.47156" lon="-0.79152">
        <ele>16</ele>
        <time>2021-01-26T11:52:08Z</time>
      </trkpt>
      <trkpt lat="46.47006" lon="-0.79171">
        <ele>17</ele>
        <time>2021-01-26T11:55:29Z</time>
      </trkpt>
      <trkpt lat="46.46816" lon="-0.792">
        <ele>14</ele>
        <time>2021-01-26T11:59:44Z</time>
      </trkpt>
      <trkpt lat="46.46795" lon="-0.79199">
        <ele>15</ele>
        <time>2021-01-26T12:00:12Z</time>
      </trkpt>
      <trkpt lat="46.46792" lon="-0.79187">
        <ele>15</ele>
        <time>2021-01-26T12:00:24Z</time>
      </trkpt>
      <trkpt lat="46.46783" lon="-0.79186">
        <ele>15</ele>
        <time>2021-01-26T12:00:36Z</time>
      </trkpt>
      <trkpt lat="46.46761" lon="-0.79214">
        <ele>16</ele>
        <time>2021-01-26T12:01:15Z</time>
      </trkpt>
      <trkpt lat="46.46753" lon="-0.79211">
        <ele>16</ele>
        <time>2021-01-26T12:01:26Z</time>
      </trkpt>
      <trkpt lat="46.46748" lon="-0.7922">
        <ele>16</ele>
        <time>2021-01-26T12:01:37Z</time>
      </trkpt>
      <trkpt lat="46.4661" lon="-0.79235">
        <ele>21</ele>
        <time>2021-01-26T12:04:41Z</time>
      </trkpt>
      <trkpt lat="46.46568" lon="-0.79244">
        <ele>22</ele>
        <time>2021-01-26T12:05:38Z</time>
      </trkpt>
      <trkpt lat="46.46541" lon="-0.79268">
        <ele>22</ele>
        <time>2021-01-26T12:06:20Z</time>
      </trkpt>
      <trkpt lat="46.46526" lon="-0.79273">
        <ele>22</ele>
        <time>2021-01-26T12:06:41Z</time>
      </trkpt>
      <trkpt lat="46.46514" lon="-0.79261">
        <ele>23</ele>
        <time>2021-01-26T12:07:00Z</time>
      </trkpt>
      <trkpt lat="46.46422" lon="-0.79268">
        <ele>25</ele>
        <time>2021-01-26T12:09:03Z</time>
      </trkpt>
      <trkpt lat="46.46417" lon="-0.79292">
        <ele>25</ele>
        <time>2021-01-26T12:09:26Z</time>
      </trkpt>
      <trkpt lat="46.46409" lon="-0.79309">
        <ele>25</ele>
        <time>2021-01-26T12:09:45Z</time>
      </trkpt>
      <trkpt lat="46.46401" lon="-0.79306">
        <ele>25</ele>
        <time>2021-01-26T12:09:56Z</time>
      </trkpt>
      <trkpt lat="46.46391" lon="-0.79312">
        <ele>25</ele>
        <time>2021-01-26T12:10:11Z</time>
      </trkpt>
      <trkpt lat="46.46382" lon="-0.79305">
        <ele>25</ele>
        <time>2021-01-26T12:10:24Z</time>
      </trkpt>
      <trkpt lat="46.46353" lon="-0.79326">
        <ele>25</ele>
        <time>2021-01-26T12:11:08Z</time>
      </trkpt>
      <trkpt lat="46.46346" lon="-0.79313">
        <ele>25</ele>
        <time>2021-01-26T12:11:23Z</time>
      </trkpt>
      <trkpt lat="46.46333" lon="-0.79316">
        <ele>25</ele>
        <time>2021-01-26T12:11:40Z</time>
      </trkpt>
      <trkpt lat="46.46324" lon="-0.79302">
        <ele>24</ele>
        <time>2021-01-26T12:11:58Z</time>
      </trkpt>
      <trkpt lat="46.46285" lon="-0.79304">
        <ele>24</ele>
        <time>2021-01-26T12:12:50Z</time>
      </trkpt>
      <trkpt lat="46.46275" lon="-0.79299">
        <ele>24</ele>
        <time>2021-01-26T12:13:04Z</time>
      </trkpt>
      <trkpt lat="46.4626" lon="-0.79313">
        <ele>24</ele>
        <time>2021-01-26T12:13:28Z</time>
      </trkpt>
      <trkpt lat="46.46251" lon="-0.79327">
        <ele>25</ele>
        <time>2021-01-26T12:13:45Z</time>
      </trkpt>
      <trkpt lat="46.46229" lon="-0.79347">
        <ele>24</ele>
        <time>2021-01-26T12:14:20Z</time>
      </trkpt>
      <trkpt lat="46.46213" lon="-0.79356">
        <ele>24</ele>
        <time>2021-01-26T12:14:43Z</time>
      </trkpt>
      <trkpt lat="46.46197" lon="-0.79349">
        <ele>24</ele>
        <time>2021-01-26T12:15:05Z</time>
      </trkpt>
      <trkpt lat="46.46163" lon="-0.79354">
        <ele>24</ele>
        <time>2021-01-26T12:15:51Z</time>
      </trkpt>
      <trkpt lat="46.46156" lon="-0.79366">
        <ele>23</ele>
        <time>2021-01-26T12:16:05Z</time>
      </trkpt>
      <trkpt lat="46.46094" lon="-0.79375">
        <ele>23</ele>
        <time>2021-01-26T12:17:28Z</time>
      </trkpt>
      <trkpt lat="46.4603" lon="-0.79389">
        <ele>22</ele>
        <time>2021-01-26T12:18:55Z</time>
      </trkpt>
      <trkpt lat="46.46025" lon="-0.79386">
        <ele>22</ele>
        <time>2021-01-26T12:19:02Z</time>
      </trkpt>
      <trkpt lat="46.46019" lon="-0.7937">
        <ele>23</ele>
        <time>2021-01-26T12:19:19Z</time>
      </trkpt>
      <trkpt lat="46.45997" lon="-0.79371">
        <ele>23</ele>
        <time>2021-01-26T12:19:48Z</time>
      </trkpt>
      <trkpt lat="46.4595" lon="-0.79378">
        <ele>23</ele>
        <time>2021-01-26T12:20:51Z</time>
      </trkpt>
      <trkpt lat="46.45941" lon="-0.7937">
        <ele>22</ele>
        <time>2021-01-26T12:21:05Z</time>
      </trkpt>
      <trkpt lat="46.45931" lon="-0.79356">
        <ele>22</ele>
        <time>2021-01-26T12:21:24Z</time>
      </trkpt>
      <trkpt lat="46.45902" lon="-0.79355">
        <ele>21</ele>
        <time>2021-01-26T12:22:03Z</time>
      </trkpt>
      <trkpt lat="46.45895" lon="-0.7933">
        <ele>20</ele>
        <time>2021-01-26T12:22:27Z</time>
      </trkpt>
      <trkpt lat="46.45887" lon="-0.79326">
        <ele>20</ele>
        <time>2021-01-26T12:22:39Z</time>
      </trkpt>
      <trkpt lat="46.45872" lon="-0.79332">
        <ele>19</ele>
        <time>2021-01-26T12:22:59Z</time>
      </trkpt>
      <trkpt lat="46.45807" lon="-0.79343">
        <ele>19</ele>
        <time>2021-01-26T12:24:27Z</time>
      </trkpt>
      <trkpt lat="46.45785" lon="-0.79339">
        <ele>19</ele>
        <time>2021-01-26T12:24:56Z</time>
      </trkpt>
      <trkpt lat="46.45694" lon="-0.79308">
        <ele>21</ele>
        <time>2021-01-26T12:27:01Z</time>
      </trkpt>
      <trkpt lat="46.45652" lon="-0.79287">
        <ele>23</ele>
        <time>2021-01-26T12:28:00Z</time>
      </trkpt>
      <trkpt lat="46.45589" lon="-0.79246">
        <ele>22</ele>
        <time>2021-01-26T12:29:33Z</time>
      </trkpt>
      <trkpt lat="46.4551" lon="-0.79172">
        <ele>22</ele>
        <time>2021-01-26T12:31:38Z</time>
      </trkpt>
      <trkpt lat="46.45472" lon="-0.79133">
        <ele>23</ele>
        <time>2021-01-26T12:32:40Z</time>
      </trkpt>
      <trkpt lat="46.45455" lon="-0.79137">
        <ele>23</ele>
        <time>2021-01-26T12:33:03Z</time>
      </trkpt>
      <trkpt lat="46.45395" lon="-0.79087">
        <ele>22</ele>
        <time>2021-01-26T12:34:35Z</time>
      </trkpt>
      <trkpt lat="46.45351" lon="-0.79066">
        <ele>20</ele>
        <time>2021-01-26T12:35:37Z</time>
      </trkpt>
      <trkpt lat="46.45322" lon="-0.79057">
        <ele>20</ele>
        <time>2021-01-26T12:36:17Z</time>
      </trkpt>
      <trkpt lat="46.45292" lon="-0.79052">
        <ele>20</ele>
        <time>2021-01-26T12:36:57Z</time>
      </trkpt>
      <trkpt lat="46.45189" lon="-0.79073">
        <ele>17</ele>
        <time>2021-01-26T12:39:16Z</time>
      </trkpt>
      <trkpt lat="46.45155" lon="-0.791">
        <ele>16</ele>
        <time>2021-01-26T12:40:08Z</time>
      </trkpt>
      <trkpt lat="46.4512" lon="-0.79138">
        <ele>16</ele>
        <time>2021-01-26T12:41:06Z</time>
      </trkpt>
      <trkpt lat="46.45066" lon="-0.79207">
        <ele>18</ele>
        <time>2021-01-26T12:42:42Z</time>
      </trkpt>
      <trkpt lat="46.45078" lon="-0.79208">
        <ele>18</ele>
        <time>2021-01-26T12:42:58Z</time>
      </trkpt>
      <trkpt lat="46.45122" lon="-0.7915">
        <ele>16</ele>
        <time>2021-01-26T12:44:17Z</time>
      </trkpt>
      <trkpt lat="46.45157" lon="-0.7918">
        <ele>17</ele>
        <time>2021-01-26T12:45:12Z</time>
      </trkpt>
      <trkpt lat="46.45177" lon="-0.79202">
        <ele>17</ele>
        <time>2021-01-26T12:45:45Z</time>
      </trkpt>
      <trkpt lat="46.45218" lon="-0.79325">
        <ele>15</ele>
        <time>2021-01-26T12:47:51Z</time>
      </trkpt>
      <trkpt lat="46.45238" lon="-0.79409">
        <ele>14</ele>
        <time>2021-01-26T12:49:12Z</time>
      </trkpt>
      <trkpt lat="46.45239" lon="-0.79451">
        <ele>13</ele>
        <time>2021-01-26T12:49:51Z</time>
      </trkpt>
      <trkpt lat="46.45248" lon="-0.7951">
        <ele>13</ele>
        <time>2021-01-26T12:50:47Z</time>
      </trkpt>
      <trkpt lat="46.45249" lon="-0.79592">
        <ele>12</ele>
        <time>2021-01-26T12:52:02Z</time>
      </trkpt>
      <trkpt lat="46.45263" lon="-0.79584">
        <ele>12</ele>
        <time>2021-01-26T12:52:22Z</time>
      </trkpt>
      <trkpt lat="46.45286" lon="-0.79644">
        <ele>12</ele>
        <time>2021-01-26T12:53:25Z</time>
      </trkpt>
      <trkpt lat="46.4532" lon="-0.79674">
        <ele>11</ele>
        <time>2021-01-26T12:54:18Z</time>
      </trkpt>
      <trkpt lat="46.45353" lon="-0.79679">
        <ele>11</ele>
        <time>2021-01-26T12:55:03Z</time>
      </trkpt>
      <trkpt lat="46.45426" lon="-0.79673">
        <ele>10</ele>
        <time>2021-01-26T12:56:40Z</time>
      </trkpt>
      <trkpt lat="46.45495" lon="-0.79676">
        <ele>11</ele>
        <time>2021-01-26T12:58:12Z</time>
      </trkpt>
      <trkpt lat="46.45535" lon="-0.79701">
        <ele>13</ele>
        <time>2021-01-26T12:59:10Z</time>
      </trkpt>
      <trkpt lat="46.45573" lon="-0.79758">
        <ele>13</ele>
        <time>2021-01-26T13:00:23Z</time>
      </trkpt>
      <trkpt lat="46.45591" lon="-0.79793">
        <ele>13</ele>
        <time>2021-01-26T13:01:03Z</time>
      </trkpt>
      <trkpt lat="46.45601" lon="-0.79803">
        <ele>13</ele>
        <time>2021-01-26T13:01:20Z</time>
      </trkpt>
      <trkpt lat="46.45615" lon="-0.79862">
        <ele>14</ele>
        <time>2021-01-26T13:02:17Z</time>
      </trkpt>
      <trkpt lat="46.45631" lon="-0.79897">
        <ele>15</ele>
        <time>2021-01-26T13:02:56Z</time>
      </trkpt>
      <trkpt lat="46.45674" lon="-0.79958">
        <ele>14</ele>
        <time>2021-01-26T13:04:16Z</time>
      </trkpt>
      <trkpt lat="46.45682" lon="-0.79976">
        <ele>14</ele>
        <time>2021-01-26T13:04:36Z</time>
      </trkpt>
      <trkpt lat="46.45694" lon="-0.79992">
        <ele>13</ele>
        <time>2021-01-26T13:04:57Z</time>
      </trkpt>
      <trkpt lat="46.45712" lon="-0.79993">
        <ele>12</ele>
        <time>2021-01-26T13:05:21Z</time>
      </trkpt>
      <trkpt lat="46.4573" lon="-0.8">
        <ele>11</ele>
        <time>2021-01-26T13:05:46Z</time>
      </trkpt>
      <trkpt lat="46.45743" lon="-0.80012">
        <ele>11</ele>
        <time>2021-01-26T13:06:07Z</time>
      </trkpt>
      <trkpt lat="46.45762" lon="-0.80044">
        <ele>10</ele>
        <time>2021-01-26T13:06:46Z</time>
      </trkpt>
      <trkpt lat="46.45771" lon="-0.8005">
        <ele>10</ele>
        <time>2021-01-26T13:06:59Z</time>
      </trkpt>
      <trkpt lat="46.45779" lon="-0.80048">
        <ele>9</ele>
        <time>2021-01-26T13:07:10Z</time>
      </trkpt>
      <trkpt lat="46.45783" lon="-0.80065">
        <ele>9</ele>
        <time>2021-01-26T13:07:26Z</time>
      </trkpt>
      <trkpt lat="46.45822" lon="-0.8005">
        <ele>9</ele>
        <time>2021-01-26T13:08:20Z</time>
      </trkpt>
      <trkpt lat="46.45842" lon="-0.80126">
        <ele>8</ele>
        <time>2021-01-26T13:09:35Z</time>
      </trkpt>
      <trkpt lat="46.45874" lon="-0.80182">
        <ele>7</ele>
        <time>2021-01-26T13:10:42Z</time>
      </trkpt>
      <trkpt lat="46.4588" lon="-0.80201">
        <ele>7</ele>
        <time>2021-01-26T13:11:01Z</time>
      </trkpt>
      <trkpt lat="46.45903" lon="-0.80248">
        <ele>7</ele>
        <time>2021-01-26T13:11:54Z</time>
      </trkpt>
      <trkpt lat="46.45935" lon="-0.80373">
        <ele>7</ele>
        <time>2021-01-26T13:13:56Z</time>
      </trkpt>
      <trkpt lat="46.45938" lon="-0.80405">
        <ele>7</ele>
        <time>2021-01-26T13:14:26Z</time>
      </trkpt>
      <trkpt lat="46.45928" lon="-0.8041">
        <ele>7</ele>
        <time>2021-01-26T13:14:40Z</time>
      </trkpt>
      <trkpt lat="46.45932" lon="-0.80437">
        <ele>7</ele>
        <time>2021-01-26T13:15:06Z</time>
      </trkpt>
      <trkpt lat="46.45925" lon="-0.80463">
        <ele>7</ele>
        <time>2021-01-26T13:15:31Z</time>
      </trkpt>
      <trkpt lat="46.45933" lon="-0.80486">
        <ele>7</ele>
        <time>2021-01-26T13:15:55Z</time>
      </trkpt>
      <trkpt lat="46.45956" lon="-0.80534">
        <ele>6</ele>
        <time>2021-01-26T13:16:49Z</time>
      </trkpt>
      <trkpt lat="46.45952" lon="-0.80556">
        <ele>6</ele>
        <time>2021-01-26T13:17:10Z</time>
      </trkpt>
      <trkpt lat="46.45998" lon="-0.80807">
        <ele>5</ele>
        <time>2021-01-26T13:21:08Z</time>
      </trkpt>
      <trkpt lat="46.46023" lon="-0.80975">
        <ele>5</ele>
        <time>2021-01-26T13:23:46Z</time>
      </trkpt>
      <trkpt lat="46.4601" lon="-0.81157">
        <ele>4</ele>
        <time>2021-01-26T13:26:35Z</time>
      </trkpt>
      <trkpt lat="46.46011" lon="-0.8119">
        <ele>4</ele>
        <time>2021-01-26T13:27:05Z</time>
      </trkpt>
      <trkpt lat="46.46071" lon="-0.81215">
        <ele>6</ele>
        <time>2021-01-26T13:28:28Z</time>
      </trkpt>
      <trkpt lat="46.46091" lon="-0.81212">
        <ele>7</ele>
        <time>2021-01-26T13:28:55Z</time>
      </trkpt>
      <trkpt lat="46.461" lon="-0.81193">
        <ele>6</ele>
        <time>2021-01-26T13:29:16Z</time>
      </trkpt>
      <trkpt lat="46.46118" lon="-0.81191">
        <ele>6</ele>
        <time>2021-01-26T13:29:40Z</time>
      </trkpt>
      <trkpt lat="46.46131" lon="-0.81197">
        <ele>7</ele>
        <time>2021-01-26T13:29:59Z</time>
      </trkpt>
      <trkpt lat="46.46171" lon="-0.81203">
        <ele>7</ele>
        <time>2021-01-26T13:30:52Z</time>
      </trkpt>
      <trkpt lat="46.46234" lon="-0.8122">
        <ele>8</ele>
        <time>2021-01-26T13:32:18Z</time>
      </trkpt>
      <trkpt lat="46.46342" lon="-0.8101">
        <ele>8</ele>
        <time>2021-01-26T13:36:19Z</time>
      </trkpt>
      <trkpt lat="46.464" lon="-0.81073">
        <ele>10</ele>
        <time>2021-01-26T13:37:55Z</time>
      </trkpt>
      <trkpt lat="46.46414" lon="-0.81041">
        <ele>10</ele>
        <time>2021-01-26T13:38:30Z</time>
      </trkpt>
      <trkpt lat="46.46428" lon="-0.81027">
        <ele>11</ele>
        <time>2021-01-26T13:38:53Z</time>
      </trkpt>
      <trkpt lat="46.46463" lon="-0.81028">
        <ele>14</ele>
        <time>2021-01-26T13:39:40Z</time>
      </trkpt>
      <trkpt lat="46.46476" lon="-0.81012">
        <ele>15</ele>
        <time>2021-01-26T13:40:02Z</time>
      </trkpt>
      <trkpt lat="46.46493" lon="-0.81005">
        <ele>16</ele>
        <time>2021-01-26T13:40:26Z</time>
      </trkpt>
      <trkpt lat="46.46505" lon="-0.81012">
        <ele>18</ele>
        <time>2021-01-26T13:40:43Z</time>
      </trkpt>
      <trkpt lat="46.46507" lon="-0.81113">
        <ele>26</ele>
        <time>2021-01-26T13:42:16Z</time>
      </trkpt>
      <trkpt lat="46.46492" lon="-0.81159">
        <ele>28</ele>
        <time>2021-01-26T13:43:03Z</time>
      </trkpt>
      <trkpt lat="46.46508" lon="-0.81224">
        <ele>33</ele>
        <time>2021-01-26T13:44:06Z</time>
      </trkpt>
      <trkpt lat="46.46548" lon="-0.81327">
        <ele>37</ele>
        <time>2021-01-26T13:45:55Z</time>
      </trkpt>
      <trkpt lat="46.46543" lon="-0.81476">
        <ele>35</ele>
        <time>2021-01-26T13:48:12Z</time>
      </trkpt>
      <trkpt lat="46.46558" lon="-0.81543">
        <ele>33</ele>
        <time>2021-01-26T13:49:17Z</time>
      </trkpt>
      <trkpt lat="46.46614" lon="-0.8152">
        <ele>35</ele>
        <time>2021-01-26T13:50:34Z</time>
      </trkpt>
      <trkpt lat="46.4663" lon="-0.81527">
        <ele>36</ele>
        <time>2021-01-26T13:50:57Z</time>
      </trkpt>
      <trkpt lat="46.46734" lon="-0.81481">
        <ele>39</ele>
        <time>2021-01-26T13:53:22Z</time>
      </trkpt>
      <trkpt lat="46.46794" lon="-0.81447">
        <ele>40</ele>
        <time>2021-01-26T13:54:48Z</time>
      </trkpt>
      <trkpt lat="46.46811" lon="-0.81416">
        <ele>40</ele>
        <time>2021-01-26T13:55:24Z</time>
      </trkpt>
      <trkpt lat="46.46846" lon="-0.81387">
        <ele>40</ele>
        <time>2021-01-26T13:56:18Z</time>
      </trkpt>
      <trkpt lat="46.46884" lon="-0.81364">
        <ele>41</ele>
        <time>2021-01-26T13:57:13Z</time>
      </trkpt>
      <trkpt lat="46.46864" lon="-0.81355">
        <ele>41</ele>
        <time>2021-01-26T13:57:41Z</time>
      </trkpt>
      <trkpt lat="46.46859" lon="-0.81341">
        <ele>41</ele>
        <time>2021-01-26T13:57:55Z</time>
      </trkpt>
      <trkpt lat="46.46833" lon="-0.81356">
        <ele>41</ele>
        <time>2021-01-26T13:58:33Z</time>
      </trkpt>
      <trkpt lat="46.46832" lon="-0.81343">
        <ele>41</ele>
        <time>2021-01-26T13:58:45Z</time>
      </trkpt>
      <trkpt lat="46.46928" lon="-0.81259">
        <ele>38</ele>
        <time>2021-01-26T14:01:14Z</time>
      </trkpt>
      <trkpt lat="46.46926" lon="-0.81226">
        <ele>36</ele>
        <time>2021-01-26T14:01:45Z</time>
      </trkpt>
      <trkpt lat="46.46972" lon="-0.81166">
        <ele>31</ele>
        <time>2021-01-26T14:03:07Z</time>
      </trkpt>
      <trkpt lat="46.47015" lon="-0.81175">
        <ele>30</ele>
        <time>2021-01-26T14:04:05Z</time>
      </trkpt>
      <trkpt lat="46.47043" lon="-0.81125">
        <ele>29</ele>
        <time>2021-01-26T14:05:04Z</time>
      </trkpt>
      <trkpt lat="46.47056" lon="-0.81115">
        <ele>29</ele>
        <time>2021-01-26T14:05:24Z</time>
      </trkpt>
      <trkpt lat="46.47069" lon="-0.81041">
        <ele>33</ele>
        <time>2021-01-26T14:06:34Z</time>
      </trkpt>
      <trkpt lat="46.47085" lon="-0.81015">
        <ele>36</ele>
        <time>2021-01-26T14:07:06Z</time>
      </trkpt>
      <trkpt lat="46.47097" lon="-0.80953">
        <ele>38</ele>
        <time>2021-01-26T14:08:06Z</time>
      </trkpt>
      <trkpt lat="46.47118" lon="-0.80904">
        <ele>39</ele>
        <time>2021-01-26T14:08:59Z</time>
      </trkpt>
      <trkpt lat="46.47112" lon="-0.80896">
        <ele>39</ele>
        <time>2021-01-26T14:09:09Z</time>
      </trkpt>
      <trkpt lat="46.47124" lon="-0.80866">
        <ele>41</ele>
        <time>2021-01-26T14:09:41Z</time>
      </trkpt>
      <trkpt lat="46.47058" lon="-0.80859">
        <ele>39</ele>
        <time>2021-01-26T14:11:10Z</time>
      </trkpt>
      <trkpt lat="46.47028" lon="-0.80782">
        <ele>38</ele>
        <time>2021-01-26T14:12:31Z</time>
      </trkpt>
      <trkpt lat="46.46932" lon="-0.8084">
        <ele>32</ele>
        <time>2021-01-26T14:14:50Z</time>
      </trkpt>
      <trkpt lat="46.46909" lon="-0.80816">
        <ele>31</ele>
        <time>2021-01-26T14:15:28Z</time>
      </trkpt>
      <trkpt lat="46.46882" lon="-0.80776">
        <ele>30</ele>
        <time>2021-01-26T14:16:19Z</time>
      </trkpt>
      <trkpt lat="46.46868" lon="-0.80776">
        <ele>29</ele>
        <time>2021-01-26T14:16:38Z</time>
      </trkpt>
      <trkpt lat="46.46886" lon="-0.80691">
        <ele>31</ele>
        <time>2021-01-26T14:17:59Z</time>
      </trkpt>
      <trkpt lat="46.46879" lon="-0.80675">
        <ele>30</ele>
        <time>2021-01-26T14:18:17Z</time>
      </trkpt>
      <trkpt lat="46.46882" lon="-0.80665">
        <ele>30</ele>
        <time>2021-01-26T14:18:27Z</time>
      </trkpt>
      <trkpt lat="46.46893" lon="-0.8067">
        <ele>32</ele>
        <time>2021-01-26T14:18:42Z</time>
      </trkpt>
      <trkpt lat="46.4687" lon="-0.806">
        <ele>29</ele>
        <time>2021-01-26T14:19:54Z</time>
      </trkpt>
      <trkpt lat="46.46929" lon="-0.80535">
        <ele>35</ele>
        <time>2021-01-26T14:21:32Z</time>
      </trkpt>
      <trkpt lat="46.46924" lon="-0.80492">
        <ele>33</ele>
        <time>2021-01-26T14:22:12Z</time>
      </trkpt>
      <trkpt lat="46.46903" lon="-0.80479">
        <ele>29</ele>
        <time>2021-01-26T14:22:43Z</time>
      </trkpt>
      <trkpt lat="46.46925" lon="-0.80466">
        <ele>29</ele>
        <time>2021-01-26T14:23:15Z</time>
      </trkpt>
      <trkpt lat="46.46942" lon="-0.80421">
        <ele>25</ele>
        <time>2021-01-26T14:24:02Z</time>
      </trkpt>
      <trkpt lat="46.46938" lon="-0.8037">
        <ele>20</ele>
        <time>2021-01-26T14:24:49Z</time>
      </trkpt>
      <trkpt lat="46.4687" lon="-0.80415">
        <ele>16</ele>
        <time>2021-01-26T14:26:29Z</time>
      </trkpt>
      <trkpt lat="46.46837" lon="-0.80428">
        <ele>13</ele>
        <time>2021-01-26T14:27:14Z</time>
      </trkpt>
      <trkpt lat="46.46829" lon="-0.80431">
        <ele>12</ele>
        <time>2021-01-26T14:27:25Z</time>
      </trkpt>
      <trkpt lat="46.46813" lon="-0.80419">
        <ele>11</ele>
        <time>2021-01-26T14:27:49Z</time>
      </trkpt>
      <trkpt lat="46.46821" lon="-0.80438">
        <ele>13</ele>
        <time>2021-01-26T14:28:10Z</time>
      </trkpt>
      <trkpt lat="46.46814" lon="-0.80448">
        <ele>14</ele>
        <time>2021-01-26T14:28:23Z</time>
      </trkpt>
      <trkpt lat="46.46821" lon="-0.80499">
        <ele>19</ele>
        <time>2021-01-26T14:29:11Z</time>
      </trkpt>
      <trkpt lat="46.46832" lon="-0.80541">
        <ele>22</ele>
        <time>2021-01-26T14:29:52Z</time>
      </trkpt>
      <trkpt lat="46.46822" lon="-0.80562">
        <ele>22</ele>
        <time>2021-01-26T14:30:15Z</time>
      </trkpt>
      <trkpt lat="46.46824" lon="-0.80605">
        <ele>23</ele>
        <time>2021-01-26T14:30:55Z</time>
      </trkpt>
      <trkpt lat="46.46818" lon="-0.8063">
        <ele>23</ele>
        <time>2021-01-26T14:31:19Z</time>
      </trkpt>
      <trkpt lat="46.46816" lon="-0.80657">
        <ele>23</ele>
        <time>2021-01-26T14:31:44Z</time>
      </trkpt>
      <trkpt lat="46.46803" lon="-0.80661">
        <ele>23</ele>
        <time>2021-01-26T14:32:02Z</time>
      </trkpt>
      <trkpt lat="46.46813" lon="-0.8072">
        <ele>25</ele>
        <time>2021-01-26T14:32:58Z</time>
      </trkpt>
      <trkpt lat="46.46802" lon="-0.80768">
        <ele>27</ele>
        <time>2021-01-26T14:33:44Z</time>
      </trkpt>
      <trkpt lat="46.46777" lon="-0.80801">
        <ele>28</ele>
        <time>2021-01-26T14:34:30Z</time>
      </trkpt>
      <trkpt lat="46.46782" lon="-0.80847">
        <ele>30</ele>
        <time>2021-01-26T14:35:12Z</time>
      </trkpt>
      <trkpt lat="46.46758" lon="-0.80851">
        <ele>31</ele>
        <time>2021-01-26T14:35:45Z</time>
      </trkpt>
      <trkpt lat="46.46731" lon="-0.80842">
        <ele>30</ele>
        <time>2021-01-26T14:36:22Z</time>
      </trkpt>
      <trkpt lat="46.4669" lon="-0.80837">
        <ele>28</ele>
        <time>2021-01-26T14:37:16Z</time>
      </trkpt>
      <trkpt lat="46.46699" lon="-0.80816">
        <ele>27</ele>
        <time>2021-01-26T14:37:39Z</time>
      </trkpt>
      <trkpt lat="46.46722" lon="-0.80775">
        <ele>26</ele>
        <time>2021-01-26T14:38:28Z</time>
      </trkpt>
      <trkpt lat="46.46749" lon="-0.80734">
        <ele>26</ele>
        <time>2021-01-26T14:39:20Z</time>
      </trkpt>
      <trkpt lat="46.46745" lon="-0.80721">
        <ele>25</ele>
        <time>2021-01-26T14:39:33Z</time>
      </trkpt>
      <trkpt lat="46.46736" lon="-0.80721">
        <ele>25</ele>
        <time>2021-01-26T14:39:45Z</time>
      </trkpt>
      <trkpt lat="46.46731" lon="-0.80701">
        <ele>24</ele>
        <time>2021-01-26T14:40:05Z</time>
      </trkpt>
      <trkpt lat="46.46735" lon="-0.80729">
        <ele>25</ele>
        <time>2021-01-26T14:40:31Z</time>
      </trkpt>
      <trkpt lat="46.46743" lon="-0.80729">
        <ele>25</ele>
        <time>2021-01-26T14:40:42Z</time>
      </trkpt>
      <trkpt lat="46.46733" lon="-0.80744">
        <ele>25</ele>
        <time>2021-01-26T14:41:01Z</time>
      </trkpt>
      <trkpt lat="46.4672" lon="-0.80747">
        <ele>25</ele>
        <time>2021-01-26T14:41:18Z</time>
      </trkpt>
      <trkpt lat="46.46709" lon="-0.80704">
        <ele>23</ele>
        <time>2021-01-26T14:42:00Z</time>
      </trkpt>
      <trkpt lat="46.46699" lon="-0.80685">
        <ele>23</ele>
        <time>2021-01-26T14:42:22Z</time>
      </trkpt>
      <trkpt lat="46.46715" lon="-0.80647">
        <ele>22</ele>
        <time>2021-01-26T14:43:03Z</time>
      </trkpt>
      <trkpt lat="46.46717" lon="-0.806">
        <ele>19</ele>
        <time>2021-01-26T14:43:47Z</time>
      </trkpt>
      <trkpt lat="46.46693" lon="-0.8058">
        <ele>16</ele>
        <time>2021-01-26T14:44:24Z</time>
      </trkpt>
      <trkpt lat="46.46673" lon="-0.8058">
        <ele>15</ele>
        <time>2021-01-26T14:44:50Z</time>
      </trkpt>
      <trkpt lat="46.46662" lon="-0.8057">
        <ele>14</ele>
        <time>2021-01-26T14:45:08Z</time>
      </trkpt>
      <trkpt lat="46.46648" lon="-0.80589">
        <ele>14</ele>
        <time>2021-01-26T14:45:33Z</time>
      </trkpt>
      <trkpt lat="46.46628" lon="-0.80606">
        <ele>14</ele>
        <time>2021-01-26T14:46:04Z</time>
      </trkpt>
      <trkpt lat="46.46619" lon="-0.8061">
        <ele>14</ele>
        <time>2021-01-26T14:46:17Z</time>
      </trkpt>
      <trkpt lat="46.46623" lon="-0.8063">
        <ele>15</ele>
        <time>2021-01-26T14:46:36Z</time>
      </trkpt>
      <trkpt lat="46.46617" lon="-0.80634">
        <ele>14</ele>
        <time>2021-01-26T14:46:45Z</time>
      </trkpt>
      <trkpt lat="46.46607" lon="-0.80658">
        <ele>14</ele>
        <time>2021-01-26T14:47:10Z</time>
      </trkpt>
      <trkpt lat="46.46557" lon="-0.80689">
        <ele>12</ele>
        <time>2021-01-26T14:48:23Z</time>
      </trkpt>
      <trkpt lat="46.46536" lon="-0.80709">
        <ele>12</ele>
        <time>2021-01-26T14:48:56Z</time>
      </trkpt>
      <trkpt lat="46.46511" lon="-0.80724">
        <ele>12</ele>
        <time>2021-01-26T14:49:33Z</time>
      </trkpt>
      <trkpt lat="46.46475" lon="-0.80753">
        <ele>11</ele>
        <time>2021-01-26T14:50:28Z</time>
      </trkpt>
      <trkpt lat="46.46446" lon="-0.80668">
        <ele>11</ele>
        <time>2021-01-26T14:51:55Z</time>
      </trkpt>
      <trkpt lat="46.46407" lon="-0.80524">
        <ele>8</ele>
        <time>2021-01-26T14:54:17Z</time>
      </trkpt>
      <trkpt lat="46.46399" lon="-0.80511">
        <ele>7</ele>
        <time>2021-01-26T14:54:33Z</time>
      </trkpt>
      <trkpt lat="46.46416" lon="-0.80439">
        <ele>8</ele>
        <time>2021-01-26T14:55:43Z</time>
      </trkpt>
      <trkpt lat="46.46442" lon="-0.80466">
        <ele>8</ele>
        <time>2021-01-26T14:56:26Z</time>
      </trkpt>
      <trkpt lat="46.46486" lon="-0.80481">
        <ele>9</ele>
        <time>2021-01-26T14:57:26Z</time>
      </trkpt>
      <trkpt lat="46.4652" lon="-0.80498">
        <ele>10</ele>
        <time>2021-01-26T14:58:14Z</time>
      </trkpt>
      <trkpt lat="46.46583" lon="-0.80513">
        <ele>13</ele>
        <time>2021-01-26T14:59:39Z</time>
      </trkpt>
      <trkpt lat="46.46566" lon="-0.80461">
        <ele>12</ele>
        <time>2021-01-26T15:00:32Z</time>
      </trkpt>
      <trkpt lat="46.46636" lon="-0.80428">
        <ele>13</ele>
        <time>2021-01-26T15:02:10Z</time>
      </trkpt>
      <trkpt lat="46.4665" lon="-0.80443">
        <ele>13</ele>
        <time>2021-01-26T15:02:33Z</time>
      </trkpt>
      <trkpt lat="46.46629" lon="-0.80481">
        <ele>13</ele>
        <time>2021-01-26T15:03:18Z</time>
      </trkpt>
      <trkpt lat="46.46627" lon="-0.80509">
        <ele>13</ele>
        <time>2021-01-26T15:03:44Z</time>
      </trkpt>
      <trkpt lat="46.46649" lon="-0.80549">
        <ele>13</ele>
        <time>2021-01-26T15:04:31Z</time>
      </trkpt>
      <trkpt lat="46.46677" lon="-0.8054">
        <ele>14</ele>
        <time>2021-01-26T15:05:09Z</time>
      </trkpt>
      <trkpt lat="46.4675" lon="-0.80481">
        <ele>13</ele>
        <time>2021-01-26T15:07:01Z</time>
      </trkpt>
      <trkpt lat="46.46747" lon="-0.80437">
        <ele>12</ele>
        <time>2021-01-26T15:07:42Z</time>
      </trkpt>
      <trkpt lat="46.46739" lon="-0.80412">
        <ele>11</ele>
        <time>2021-01-26T15:08:07Z</time>
      </trkpt>
      <trkpt lat="46.46731" lon="-0.80373">
        <ele>12</ele>
        <time>2021-01-26T15:08:44Z</time>
      </trkpt>
      <trkpt lat="46.46717" lon="-0.80341">
        <ele>12</ele>
        <time>2021-01-26T15:09:19Z</time>
      </trkpt>
      <trkpt lat="46.46683" lon="-0.80364">
        <ele>12</ele>
        <time>2021-01-26T15:10:09Z</time>
      </trkpt>
      <trkpt lat="46.46669" lon="-0.80357">
        <ele>12</ele>
        <time>2021-01-26T15:10:29Z</time>
      </trkpt>
      <trkpt lat="46.46639" lon="-0.80389">
        <ele>13</ele>
        <time>2021-01-26T15:11:19Z</time>
      </trkpt>
      <trkpt lat="46.46624" lon="-0.80366">
        <ele>12</ele>
        <time>2021-01-26T15:11:48Z</time>
      </trkpt>
      <trkpt lat="46.46604" lon="-0.8038">
        <ele>13</ele>
        <time>2021-01-26T15:12:17Z</time>
      </trkpt>
      <trkpt lat="46.46586" lon="-0.80365">
        <ele>12</ele>
        <time>2021-01-26T15:12:45Z</time>
      </trkpt>
      <trkpt lat="46.46545" lon="-0.80394">
        <ele>12</ele>
        <time>2021-01-26T15:13:46Z</time>
      </trkpt>
      <trkpt lat="46.46513" lon="-0.80407">
        <ele>11</ele>
        <time>2021-01-26T15:14:30Z</time>
      </trkpt>
      <trkpt lat="46.46466" lon="-0.80422">
        <ele>10</ele>
        <time>2021-01-26T15:15:34Z</time>
      </trkpt>
      <trkpt lat="46.46447" lon="-0.80384">
        <ele>10</ele>
        <time>2021-01-26T15:16:18Z</time>
      </trkpt>
      <trkpt lat="46.46439" lon="-0.80373">
        <ele>10</ele>
        <time>2021-01-26T15:16:32Z</time>
      </trkpt>
      <trkpt lat="46.46425" lon="-0.80368">
        <ele>9</ele>
        <time>2021-01-26T15:16:52Z</time>
      </trkpt>
      <trkpt lat="46.46416" lon="-0.80336">
        <ele>9</ele>
        <time>2021-01-26T15:17:23Z</time>
      </trkpt>
      <trkpt lat="46.46414" lon="-0.80313">
        <ele>9</ele>
        <time>2021-01-26T15:17:45Z</time>
      </trkpt>
      <trkpt lat="46.46401" lon="-0.80252">
        <ele>8</ele>
        <time>2021-01-26T15:18:43Z</time>
      </trkpt>
      <trkpt lat="46.46381" lon="-0.80233">
        <ele>8</ele>
        <time>2021-01-26T15:19:15Z</time>
      </trkpt>
      <trkpt lat="46.4637" lon="-0.80169">
        <ele>7</ele>
        <time>2021-01-26T15:20:16Z</time>
      </trkpt>
    </trkseg>
  </trk>
</gpx>